createdAt,value
2024-02-24T00:00:13.538Z,33.60
2024-02-24T00:02:42.198Z,19.83
2024-02-24T00:05:10.503Z,17.70
2024-02-24T00:07:38.272Z,14.13
2024-02-24T00:10:06.965Z,16.63
2024-02-24T00:12:37.267Z,11.32
2024-02-24T00:15:05.699Z,11.90
2024-02-24T00:17:33.577Z,7.05
2024-02-24T00:20:01.198Z,8.48
2024-02-24T00:22:28.857Z,10.30
2024-02-24T00:24:56.330Z,8.38
2024-02-24T00:27:23.987Z,8.60
2024-02-24T00:29:54.301Z,7.18
2024-02-24T00:32:22.441Z,8.35
2024-02-24T00:34:50.300Z,8.88
2024-02-24T00:37:18.186Z,10.05
2024-02-24T00:39:46.811Z,9.05
2024-02-24T00:42:14.831Z,12.00
2024-02-24T00:44:42.815Z,8.18
2024-02-24T00:47:13.150Z,10.50
2024-02-24T00:49:41.296Z,9.63
2024-02-24T00:52:08.899Z,12.27
2024-02-24T00:54:36.370Z,10.65
2024-02-24T00:57:04.119Z,10.57
2024-02-24T00:59:31.730Z,12.82
2024-02-24T01:01:59.329Z,12.10
2024-02-24T01:04:30.560Z,8.88
2024-02-24T01:06:59.724Z,11.48
2024-02-24T01:09:29.628Z,11.35
2024-02-24T01:12:00.366Z,9.40
2024-02-24T01:14:28.414Z,7.95
2024-02-24T01:16:56.223Z,9.48
2024-02-24T01:19:23.913Z,9.70
2024-02-24T01:21:56.629Z,9.80
2024-02-24T01:24:26.202Z,8.38
2024-02-24T01:26:53.807Z,7.25
2024-02-24T01:29:21.453Z,12.93
2024-02-24T01:31:49.221Z,9.27
2024-02-24T01:34:17.094Z,8.98
2024-02-24T01:36:44.573Z,7.00
2024-02-24T01:39:14.712Z,7.65
2024-02-24T01:41:42.675Z,8.00
2024-02-24T01:44:10.517Z,8.63
2024-02-24T01:46:38.252Z,7.25
2024-02-24T01:49:06.267Z,6.72
2024-02-24T01:51:34.321Z,7.50
2024-02-24T01:54:02.166Z,9.65
2024-02-24T01:56:33.869Z,6.22
2024-02-24T01:59:02.336Z,6.68
2024-02-24T02:01:30.109Z,6.63
2024-02-24T02:03:59.391Z,6.35
2024-02-24T02:06:30.421Z,5.35
2024-02-24T02:08:58.219Z,4.70
2024-02-24T02:11:25.907Z,5.03
2024-02-24T02:13:56.329Z,4.93
2024-02-24T02:16:24.704Z,6.72
2024-02-24T02:18:52.661Z,5.78
2024-02-24T02:21:22.388Z,4.65
2024-02-24T02:23:52.896Z,6.07
2024-02-24T02:26:21.442Z,5.95
2024-02-24T02:28:48.866Z,7.90
2024-02-24T02:31:16.562Z,4.75
2024-02-24T02:33:44.364Z,7.40
2024-02-24T02:36:15.319Z,4.22
2024-02-24T02:38:43.218Z,4.50
2024-02-24T02:41:13.284Z,6.97
2024-02-24T02:43:41.175Z,7.28
2024-02-24T02:46:08.811Z,6.75
2024-02-24T02:48:36.481Z,9.10
2024-02-24T02:51:04.540Z,7.57
2024-02-24T02:53:32.141Z,6.55
2024-02-24T02:55:59.698Z,6.40
2024-02-24T02:58:30.121Z,6.47
2024-02-24T03:00:57.995Z,8.85
2024-02-24T03:03:26.544Z,8.52
2024-02-24T03:05:54.493Z,8.25
2024-02-24T03:08:22.636Z,6.15
2024-02-24T03:10:50.293Z,6.57
2024-02-24T03:13:17.963Z,6.38
2024-02-24T03:15:48.131Z,8.48
2024-02-24T03:18:16.590Z,8.98
2024-02-24T03:20:45.877Z,10.68
2024-02-24T03:23:15.047Z,7.22
2024-02-24T03:25:42.622Z,12.05
2024-02-24T03:28:10.512Z,7.20
2024-02-24T03:30:38.287Z,9.73
2024-02-24T03:33:08.812Z,10.50
2024-02-24T03:35:36.874Z,10.55
2024-02-24T03:38:04.660Z,13.57
2024-02-24T03:40:32.752Z,13.68
2024-02-24T03:43:00.866Z,12.75
2024-02-24T03:45:28.569Z,11.93
2024-02-24T03:47:56.487Z,14.07
2024-02-24T03:50:26.754Z,18.73
2024-02-24T03:52:55.102Z,16.25
2024-02-24T03:55:22.536Z,15.30
2024-02-24T03:57:50.044Z,15.43
2024-02-24T04:00:19.043Z,12.18
2024-02-24T04:02:47.108Z,15.05
2024-02-24T04:05:14.729Z,16.85
2024-02-24T04:07:44.741Z,18.85
2024-02-24T04:10:12.680Z,13.05
2024-02-24T04:12:40.274Z,24.40
2024-02-24T04:15:08.839Z,17.70
2024-02-24T04:17:37.152Z,15.10
2024-02-24T04:20:05.407Z,27.60
2024-02-24T04:22:33.067Z,36.15
2024-02-24T04:25:06.158Z,19.75
2024-02-24T04:27:33.695Z,29.08
2024-02-24T04:30:01.376Z,35.13
2024-02-24T04:32:30.470Z,37.92
2024-02-24T04:34:58.111Z,19.25
2024-02-24T04:37:25.480Z,20.25
2024-02-24T04:39:53.921Z,23.70
2024-02-24T04:42:25.683Z,22.00
2024-02-24T04:44:53.868Z,21.20
2024-02-24T04:47:24.597Z,21.75
2024-02-24T04:49:53.096Z,18.52
2024-02-24T04:52:21.035Z,21.25
2024-02-24T04:54:53.094Z,22.02
2024-02-24T04:57:20.815Z,23.27
2024-02-24T04:59:51.213Z,17.83
2024-02-24T05:02:18.972Z,32.40
2024-02-24T05:04:46.603Z,38.50
2024-02-24T05:07:14.436Z,33.47
2024-02-24T05:09:42.251Z,28.33
2024-02-24T05:12:10.080Z,25.92
2024-02-24T05:14:39.239Z,25.38
2024-02-24T05:17:09.734Z,23.05
2024-02-24T05:19:37.424Z,22.20
2024-02-24T05:22:05.193Z,25.58
2024-02-24T05:24:32.790Z,28.33
2024-02-24T05:27:00.500Z,28.23
2024-02-24T05:29:28.308Z,24.63
2024-02-24T05:31:56.015Z,22.55
2024-02-24T05:34:26.452Z,37.58
2024-02-24T05:36:55.051Z,27.10
2024-02-24T05:39:22.752Z,31.10
2024-02-24T05:41:51.537Z,23.27
2024-02-24T05:44:19.297Z,25.92
2024-02-24T05:46:46.873Z,24.98
2024-02-24T05:49:14.837Z,21.85
2024-02-24T05:51:46.460Z,23.48
2024-02-24T05:54:14.437Z,23.58
2024-02-24T05:56:42.878Z,24.40
2024-02-24T05:59:10.449Z,25.38
2024-02-24T06:01:37.864Z,22.98
2024-02-24T06:04:05.696Z,24.30
2024-02-24T06:06:33.497Z,24.05
2024-02-24T06:09:04.183Z,20.88
2024-02-24T06:11:31.945Z,23.98
2024-02-24T06:13:59.804Z,25.70
2024-02-24T06:16:27.527Z,25.17
2024-02-24T06:18:55.240Z,24.30
2024-02-24T06:21:22.819Z,21.80
2024-02-24T06:23:50.470Z,24.73
2024-02-24T06:26:20.494Z,20.98
2024-02-24T06:28:47.967Z,20.08
2024-02-24T06:31:15.658Z,22.15
2024-02-24T06:33:43.271Z,21.63
2024-02-24T06:36:11.310Z,25.58
2024-02-24T06:38:39.250Z,20.13
2024-02-24T06:41:06.719Z,26.58
2024-02-24T06:43:36.970Z,23.25
2024-02-24T06:46:04.991Z,23.83
2024-02-24T06:48:32.551Z,20.75
2024-02-24T06:51:00.569Z,21.40
2024-02-24T06:53:28.552Z,24.55
2024-02-24T06:55:56.109Z,24.35
2024-02-24T06:58:23.807Z,21.65
2024-02-24T07:00:54.325Z,23.90
2024-02-24T07:03:22.226Z,24.25
2024-02-24T07:05:49.902Z,23.25
2024-02-24T07:08:17.347Z,22.38
2024-02-24T07:10:44.942Z,19.95
2024-02-24T07:13:12.599Z,20.90
2024-02-24T07:15:40.249Z,30.05
2024-02-24T07:18:10.779Z,13.98
2024-02-24T07:20:38.343Z,20.05
2024-02-24T07:23:06.027Z,13.48
2024-02-24T07:25:33.550Z,10.82
2024-02-24T07:28:01.385Z,18.90
2024-02-24T07:30:29.072Z,17.15
2024-02-24T07:32:57.254Z,18.45
2024-02-24T07:35:27.507Z,16.13
2024-02-24T07:37:55.050Z,9.38
2024-02-24T07:40:22.614Z,6.80
2024-02-24T07:42:50.932Z,7.57
2024-02-24T07:45:18.692Z,7.30
2024-02-24T07:47:46.199Z,4.75
2024-02-24T07:50:14.138Z,5.18
2024-02-24T07:52:46.291Z,3.60
2024-02-24T07:55:14.572Z,3.00
2024-02-24T07:57:42.258Z,5.00
2024-02-24T08:00:11.054Z,3.50
2024-02-24T08:02:38.636Z,1.88
2024-02-24T08:05:07.187Z,1.80
2024-02-24T08:07:34.604Z,2.45
2024-02-24T08:10:05.264Z,2.83
2024-02-24T08:12:32.985Z,3.05
2024-02-24T08:15:00.562Z,3.00
2024-02-24T08:17:28.392Z,3.55
2024-02-24T08:19:55.844Z,3.05
2024-02-24T08:22:23.273Z,2.75
2024-02-24T08:24:50.829Z,6.05
2024-02-24T08:27:21.003Z,4.82
2024-02-24T08:29:48.635Z,3.83
2024-02-24T08:32:19.284Z,3.05
2024-02-24T08:34:47.128Z,4.68
2024-02-24T08:37:14.905Z,3.45
2024-02-24T08:39:43.758Z,3.92
2024-02-24T08:42:11.373Z,2.78
2024-02-24T08:44:41.630Z,3.40
2024-02-24T08:47:09.331Z,3.05
2024-02-24T08:49:36.914Z,3.53
2024-02-24T08:52:05.009Z,4.72
2024-02-24T08:54:34.193Z,4.32
2024-02-24T08:57:01.928Z,3.97
2024-02-24T08:59:29.567Z,4.45
2024-02-24T09:01:59.740Z,4.30
2024-02-24T09:04:27.285Z,3.70
2024-02-24T09:06:54.728Z,3.83
2024-02-24T09:09:22.241Z,4.38
2024-02-24T09:11:51.001Z,3.92
2024-02-24T09:14:18.812Z,3.42
2024-02-24T09:16:46.295Z,2.90
2024-02-24T09:19:16.457Z,2.95
2024-02-24T09:21:45.384Z,3.03
2024-02-24T09:24:13.008Z,2.97
2024-02-24T09:26:40.647Z,2.80
2024-02-24T09:29:08.414Z,2.33
2024-02-24T09:31:36.162Z,2.10
2024-02-24T09:34:03.845Z,1.85
2024-02-24T09:36:34.299Z,5.28
2024-02-24T09:39:03.048Z,3.65
2024-02-24T09:41:30.718Z,2.00
2024-02-24T09:43:58.544Z,2.45
2024-02-24T09:46:26.608Z,3.80
2024-02-24T09:48:54.828Z,2.28
2024-02-24T09:51:22.266Z,2.58
2024-02-24T09:53:52.610Z,2.75
2024-02-24T09:56:24.261Z,2.53
2024-02-24T09:58:55.143Z,2.53
2024-02-24T10:01:22.649Z,2.50
2024-02-24T10:03:51.014Z,2.75
2024-02-24T10:06:19.035Z,2.10
2024-02-24T10:08:46.631Z,3.47
2024-02-24T10:11:17.465Z,4.18
2024-02-24T10:13:45.918Z,3.15
2024-02-24T10:16:14.253Z,3.20
2024-02-24T10:18:42.648Z,2.78
2024-02-24T10:21:10.543Z,2.97
2024-02-24T10:23:38.178Z,3.05
2024-02-24T10:26:06.439Z,3.45
2024-02-24T10:28:37.058Z,3.92
2024-02-24T10:31:05.574Z,3.35
2024-02-24T10:33:36.980Z,3.05
2024-02-24T10:36:09.156Z,3.75
2024-02-24T10:41:11.682Z,4.95
2024-02-24T10:43:43.129Z,4.45
2024-02-24T10:46:10.782Z,3.33
2024-02-24T10:48:38.675Z,2.60
2024-02-24T10:51:06.603Z,3.60
2024-02-24T10:53:35.505Z,3.83
2024-02-24T10:56:04.203Z,3.72
2024-02-24T10:58:34.418Z,2.90
2024-02-24T11:01:05.865Z,3.08
2024-02-24T11:03:33.591Z,3.55
2024-02-24T11:06:01.423Z,3.92
2024-02-24T11:08:36.693Z,3.63
2024-02-24T11:11:05.830Z,4.53
2024-02-24T11:13:34.071Z,2.78
2024-02-24T11:16:05.981Z,3.75
2024-02-24T11:18:57.750Z,3.25
2024-02-24T11:21:55.731Z,2.85
2024-02-24T11:24:23.495Z,5.65
2024-02-24T11:26:51.214Z,4.35
2024-02-24T11:29:19.216Z,3.58
2024-02-24T11:31:49.541Z,3.72
2024-02-24T11:34:17.933Z,2.67
2024-02-24T11:36:45.968Z,4.82
2024-02-24T11:39:14.491Z,4.88
2024-02-24T11:41:42.711Z,2.95
2024-02-24T11:44:11.576Z,3.15
2024-02-24T11:46:40.534Z,3.63
2024-02-24T11:49:12.133Z,2.67
2024-02-24T11:51:41.541Z,3.28
2024-02-24T11:54:11.089Z,2.72
2024-02-24T11:56:39.133Z,4.28
2024-02-24T11:59:08.479Z,2.92
2024-02-24T12:01:37.626Z,4.25
2024-02-24T12:04:05.664Z,3.72
2024-02-24T12:06:36.400Z,4.88
2024-02-24T12:09:04.253Z,2.35
2024-02-24T12:11:32.815Z,3.13
2024-02-24T12:14:00.609Z,3.15
2024-02-24T12:16:29.439Z,3.22
2024-02-24T12:18:58.224Z,2.42
2024-02-24T12:21:29.029Z,2.38
2024-02-24T12:23:59.629Z,2.10
2024-02-24T12:26:28.369Z,2.83
2024-02-24T12:28:56.577Z,3.30
2024-02-24T12:31:24.616Z,3.03
2024-02-24T12:33:52.628Z,3.22
2024-02-24T12:36:20.416Z,3.38
2024-02-24T12:38:49.910Z,3.90
2024-02-24T12:41:20.209Z,1.73
2024-02-24T12:43:47.848Z,4.97
2024-02-24T12:46:16.245Z,2.25
2024-02-24T12:48:46.234Z,4.55
2024-02-24T12:51:14.026Z,3.70
2024-02-24T12:53:43.096Z,4.22
2024-02-24T12:56:10.700Z,2.55
2024-02-24T12:58:42.925Z,2.80
2024-02-24T13:01:10.927Z,2.17
2024-02-24T13:03:38.806Z,2.42
2024-02-24T13:06:08.945Z,6.32
2024-02-24T13:08:36.599Z,1.85
2024-02-24T13:11:04.735Z,1.23
2024-02-24T13:13:32.342Z,1.63
2024-02-24T13:16:02.472Z,2.33
2024-02-24T13:18:30.351Z,3.85
2024-02-24T13:20:58.024Z,3.50
2024-02-24T13:23:25.596Z,3.40
2024-02-24T13:25:53.257Z,2.17
2024-02-24T13:28:20.745Z,3.03
2024-02-24T13:30:48.453Z,3.35
2024-02-24T13:33:19.250Z,3.13
2024-02-24T13:35:46.897Z,1.90
2024-02-24T13:38:14.477Z,2.92
2024-02-24T13:40:43.587Z,2.92
2024-02-24T13:43:13.308Z,3.53
2024-02-24T13:45:41.509Z,2.25
2024-02-24T13:48:09.040Z,2.05
2024-02-24T13:50:39.377Z,4.13
2024-02-24T13:53:08.252Z,2.75
2024-02-24T13:55:36.775Z,3.58
2024-02-24T13:58:06.249Z,4.35
2024-02-24T14:00:34.097Z,3.17
2024-02-24T14:03:04.347Z,6.45
2024-02-24T14:05:34.768Z,3.72
2024-02-24T14:08:06.098Z,1.67
2024-02-24T14:10:34.954Z,3.75
2024-02-24T14:13:02.712Z,1.70
2024-02-24T14:15:30.220Z,3.17
2024-02-24T14:17:59.535Z,1.88
2024-02-24T14:20:33.188Z,3.33
2024-02-24T14:23:01.199Z,4.07
2024-02-24T14:25:33.062Z,3.83
2024-02-24T14:28:03.908Z,4.20
2024-02-24T14:30:34.794Z,6.03
2024-02-24T14:33:02.481Z,7.15
2024-02-24T14:35:30.137Z,7.35
2024-02-24T14:37:57.796Z,5.47
2024-02-24T14:40:25.757Z,5.50
2024-02-24T14:42:57.767Z,3.83
2024-02-24T14:45:26.933Z,3.22
2024-02-24T14:47:56.314Z,4.68
2024-02-24T14:50:24.164Z,6.13
2024-02-24T14:52:51.557Z,3.25
2024-02-24T14:55:19.208Z,3.20
2024-02-24T14:57:46.859Z,10.82
2024-02-24T15:00:18.114Z,5.57
2024-02-24T15:02:53.100Z,5.63
2024-02-24T15:05:32.016Z,7.30
2024-02-24T15:07:59.567Z,8.07
2024-02-24T15:10:26.924Z,6.22
2024-02-24T15:12:55.273Z,6.55
2024-02-24T15:15:25.442Z,6.18
2024-02-24T15:17:56.218Z,10.20
2024-02-24T15:20:24.125Z,4.07
2024-02-24T15:22:52.413Z,3.55
2024-02-24T15:25:20.237Z,4.07
2024-02-24T15:27:48.008Z,5.22
2024-02-24T15:30:16.193Z,5.57
2024-02-24T15:32:46.506Z,3.97
2024-02-24T15:35:14.457Z,4.90
2024-02-24T15:37:42.376Z,7.43
2024-02-24T15:40:12.883Z,10.30
2024-02-24T15:42:40.573Z,6.38
2024-02-24T15:45:09.217Z,6.40
2024-02-24T15:47:37.321Z,5.32
2024-02-24T15:50:08.720Z,6.13
2024-02-24T15:52:36.691Z,3.88
2024-02-24T15:55:04.975Z,4.35
2024-02-24T15:57:32.723Z,4.78
2024-02-24T16:00:00.560Z,13.95
2024-02-24T16:02:28.708Z,6.45
2024-02-24T16:04:56.448Z,4.45
2024-02-24T16:07:26.820Z,5.18
2024-02-24T16:09:54.467Z,6.10
2024-02-24T16:12:22.672Z,4.80
2024-02-24T16:14:50.411Z,6.18
2024-02-24T16:17:18.404Z,5.05
2024-02-24T16:19:46.055Z,12.20
2024-02-24T16:22:13.932Z,9.45
2024-02-24T16:24:44.110Z,6.15
2024-02-24T16:27:12.521Z,5.80
2024-02-24T16:29:40.405Z,4.50
2024-02-24T16:32:09.951Z,4.80
2024-02-24T16:34:38.101Z,41.38
2024-02-24T16:37:06.160Z,26.70
2024-02-24T16:39:33.976Z,8.30
2024-02-24T16:42:04.973Z,7.38
2024-02-24T16:44:32.629Z,3.38
2024-02-24T16:47:02.434Z,4.18
2024-02-24T16:49:32.074Z,5.05
2024-02-24T16:51:59.674Z,6.38
2024-02-24T16:54:27.419Z,7.70
2024-02-24T16:56:55.215Z,8.02
2024-02-24T16:59:25.526Z,13.13
2024-02-24T17:01:53.531Z,6.10
2024-02-24T17:04:21.295Z,6.55
2024-02-24T17:06:48.936Z,6.03
2024-02-24T17:09:16.748Z,5.53
2024-02-24T17:11:44.861Z,6.07
2024-02-24T17:14:12.668Z,4.82
2024-02-24T17:16:43.063Z,5.22
2024-02-24T17:19:11.213Z,5.25
2024-02-24T17:21:39.213Z,5.03
2024-02-24T17:24:07.484Z,6.35
2024-02-24T17:26:35.377Z,6.10
2024-02-24T17:29:03.680Z,5.85
2024-02-24T17:31:31.638Z,5.97
2024-02-24T17:34:02.299Z,6.55
2024-02-24T17:36:32.138Z,6.65
2024-02-24T17:38:59.566Z,6.22
2024-02-24T17:41:27.259Z,6.22
2024-02-24T17:43:54.969Z,7.03
2024-02-24T17:46:23.061Z,6.47
2024-02-24T17:48:51.149Z,6.40
2024-02-24T17:51:21.447Z,5.95
2024-02-24T17:53:54.997Z,5.10
2024-02-24T17:56:23.599Z,5.70
2024-02-24T17:58:52.485Z,5.47
2024-02-24T18:01:20.428Z,7.07
2024-02-24T18:03:48.188Z,8.27
2024-02-24T18:06:16.677Z,8.00
2024-02-24T18:08:47.759Z,7.30
2024-02-24T18:11:15.695Z,6.93
2024-02-24T18:13:43.305Z,6.75
2024-02-24T18:16:12.795Z,6.95
2024-02-24T18:18:40.574Z,7.07
2024-02-24T18:21:15.793Z,6.55
2024-02-24T18:23:43.304Z,9.52
2024-02-24T18:26:13.736Z,10.85
2024-02-24T18:28:41.347Z,10.48
2024-02-24T18:31:09.892Z,11.82
2024-02-24T18:33:38.470Z,8.88
2024-02-24T18:36:07.934Z,12.25
2024-02-24T18:38:35.686Z,14.85
2024-02-24T18:41:03.536Z,10.13
2024-02-24T18:43:34.288Z,12.40
2024-02-24T18:46:02.094Z,15.98
2024-02-24T18:48:29.724Z,13.70
2024-02-24T18:50:57.322Z,11.65
2024-02-24T18:53:24.770Z,16.45
2024-02-24T18:55:52.646Z,14.05
2024-02-24T18:58:20.405Z,15.40
2024-02-24T19:00:50.847Z,19.77
2024-02-24T19:03:18.851Z,14.45
2024-02-24T19:05:46.826Z,13.85
2024-02-24T19:08:14.742Z,13.43
2024-02-24T19:10:42.451Z,15.07
2024-02-24T19:13:09.929Z,13.38
2024-02-24T19:15:37.765Z,14.63
2024-02-24T19:18:14.907Z,13.25
2024-02-24T19:20:43.081Z,13.68
2024-02-24T19:23:12.344Z,12.30
2024-02-24T19:25:40.347Z,12.60
2024-02-24T19:28:08.164Z,11.88
2024-02-24T19:30:36.035Z,15.10
2024-02-24T19:33:04.506Z,16.33
2024-02-24T19:35:35.381Z,13.35
2024-02-24T19:38:03.730Z,13.75
2024-02-24T19:40:31.659Z,12.07
2024-02-24T19:42:59.342Z,14.60
2024-02-24T19:45:27.093Z,18.73
2024-02-24T19:47:55.229Z,27.85
2024-02-24T19:50:23.240Z,23.00
2024-02-24T19:52:53.818Z,22.67
2024-02-24T19:55:22.733Z,16.80
2024-02-24T19:57:50.677Z,17.88
2024-02-24T20:00:18.937Z,15.60
2024-02-24T20:02:46.918Z,16.88
2024-02-24T20:05:14.994Z,14.27
2024-02-24T20:07:42.780Z,15.65
2024-02-24T20:10:13.266Z,14.85
2024-02-24T20:12:41.891Z,13.25
2024-02-24T20:15:10.842Z,15.55
2024-02-24T20:17:38.523Z,14.68
2024-02-24T20:20:08.033Z,16.27
2024-02-24T20:22:35.631Z,15.98
2024-02-24T20:25:03.282Z,14.65
2024-02-24T20:27:33.542Z,13.88
2024-02-24T20:30:01.577Z,17.38
2024-02-24T20:32:29.163Z,14.75
2024-02-24T20:34:56.860Z,15.77
2024-02-24T20:37:31.812Z,15.77
2024-02-24T20:40:00.901Z,16.77
2024-02-24T20:42:28.753Z,14.57
2024-02-24T20:44:59.083Z,16.98
2024-02-24T20:47:26.965Z,18.33
2024-02-24T20:49:54.615Z,16.10
2024-02-24T20:52:22.340Z,14.00
2024-02-24T20:54:51.100Z,13.85
2024-02-24T20:57:18.855Z,14.73
2024-02-24T20:59:47.047Z,14.73
2024-02-24T21:02:17.420Z,14.35
2024-02-24T21:04:44.969Z,13.25
2024-02-24T21:07:12.570Z,12.95
2024-02-24T21:09:40.173Z,12.65
2024-02-24T21:12:11.483Z,13.70
2024-02-24T21:14:39.082Z,15.05
2024-02-24T21:17:07.129Z,19.67
2024-02-24T21:19:37.349Z,16.80
2024-02-24T21:22:05.561Z,14.75
2024-02-24T21:24:33.134Z,15.75
2024-02-24T21:27:00.696Z,15.20
2024-02-24T21:29:28.243Z,16.17
2024-02-24T21:31:55.794Z,18.77
2024-02-24T21:34:23.759Z,18.63
2024-02-24T21:36:53.942Z,18.63
2024-02-24T21:39:21.396Z,19.08
2024-02-24T21:41:49.143Z,16.40
2024-02-24T21:44:16.739Z,13.75
2024-02-24T21:46:44.124Z,16.63
2024-02-24T21:49:11.916Z,18.33
2024-02-24T21:51:39.579Z,18.35
2024-02-24T21:54:13.698Z,20.77
2024-02-24T21:56:41.518Z,21.40
2024-02-24T21:59:09.157Z,18.58
2024-02-24T22:01:36.703Z,19.50
2024-02-24T22:04:04.950Z,16.35
2024-02-24T22:06:32.573Z,17.70
2024-02-24T22:09:00.250Z,21.55
2024-02-24T22:11:35.328Z,15.88
2024-02-24T22:14:03.278Z,15.75
2024-02-24T22:16:31.201Z,19.98
2024-02-24T22:18:58.779Z,18.33
2024-02-24T22:21:28.109Z,24.17
2024-02-24T22:23:56.581Z,18.25
2024-02-24T22:26:25.669Z,23.13
2024-02-24T22:28:56.570Z,22.33
2024-02-24T22:31:24.022Z,20.17
2024-02-24T22:33:51.704Z,17.95
2024-02-24T22:36:21.861Z,21.60
2024-02-24T22:38:53.324Z,16.38
2024-02-24T22:41:24.550Z,18.23
2024-02-24T22:43:52.779Z,18.60
2024-02-24T22:46:23.091Z,19.55
2024-02-24T22:48:50.881Z,18.85
2024-02-24T22:51:19.768Z,18.52
2024-02-24T22:53:47.455Z,15.75
2024-02-24T22:56:14.949Z,16.80
2024-02-24T22:58:46.408Z,17.13
2024-02-24T23:01:15.548Z,17.45
2024-02-24T23:03:45.899Z,22.02
2024-02-24T23:06:13.870Z,16.67
2024-02-24T23:08:41.421Z,21.02
2024-02-24T23:11:08.951Z,15.90
2024-02-24T23:13:36.584Z,16.25
2024-02-24T23:16:04.362Z,17.02
2024-02-24T23:18:32.448Z,16.08
2024-02-24T23:21:02.735Z,17.42
2024-02-24T23:23:30.644Z,16.70
2024-02-24T23:25:58.455Z,17.90
2024-02-24T23:28:25.814Z,17.15
2024-02-24T23:30:53.269Z,17.38
2024-02-24T23:33:21.137Z,19.55
2024-02-24T23:35:48.977Z,18.55
2024-02-24T23:38:19.490Z,17.20
2024-02-24T23:40:47.067Z,19.73
2024-02-24T23:43:14.912Z,18.70
2024-02-24T23:45:44.516Z,22.13
2024-02-24T23:48:12.561Z,20.08
2024-02-24T23:50:40.151Z,16.40
2024-02-24T23:53:07.706Z,22.23
2024-02-24T23:55:38.089Z,21.35
2024-02-24T23:58:07.187Z,25.85
